Time;durP1;ratioP1;P1;durP2;ratioP2;P2;SDS_P1;SDS_P2;PMS_P1;PMS_P2;Temp;Humidity;BMP_temperature;BMP_pressure;BME280_temperature;BME280_humidity;BME280_pressure;Samples;Min_cycle;Max_cycle;Signal;HPM_P1;HPM_P2
2024/01/29 00:00:15;;;;;;;;;51.50;38.75;;;;;8.41;74.53;101901.72;5119458;27;56079;-84
2024/01/29 00:02:42;;;;;;;;;46.50;37.50;;;;;8.37;74.69;101897.41;5121244;27;45431;-85
2024/01/29 00:05:07;;;;;;;;;54.25;43.00;;;;;8.21;74.47;101873.94;5120660;27;45398;-84
2024/01/29 00:07:33;;;;;;;;;46.75;41.75;;;;;8.30;74.72;101899.31;5120392;27;45378;-85
2024/01/29 00:09:58;;;;;;;;;44.25;39.00;;;;;8.19;74.82;101886.31;5128022;27;61199;-84
2024/01/29 00:12:23;;;;;;;;;52.50;40.50;;;;;8.17;75.17;101904.03;5112525;27;45313;-84
2024/01/29 00:14:49;;;;;;;;;49.25;41.50;;;;;8.18;74.87;101905.78;5125176;27;45239;-84
2024/01/29 00:17:14;;;;;;;;;49.25;39.50;;;;;8.11;74.92;101892.75;5125488;27;45449;-83
2024/01/29 00:19:39;;;;;;;;;44.50;40.00;;;;;8.07;75.30;101899.88;5124857;27;53714;-86
2024/01/29 00:22:05;;;;;;;;;37.75;33.25;;;;;8.07;75.12;101907.81;5142537;27;45404;-84
2024/01/29 00:24:30;;;;;;;;;44.25;38.25;;;;;7.97;75.61;101896.59;5128755;27;45446;-84
2024/01/29 00:26:56;;;;;;;;;52.75;42.00;;;;;8.04;75.13;101913.22;5122159;27;46929;-84
2024/01/29 00:29:21;;;;;;;;;48.25;40.25;;;;;8.05;75.91;101917.59;5140773;27;45328;-84
2024/01/29 00:31:46;;;;;;;;;36.75;36.50;;;;;8.05;75.51;101908.78;5142155;27;45237;-84
2024/01/29 00:34:12;;;;;;;;;52.50;40.50;;;;;7.96;75.53;101894.00;5140550;27;45332;-83
2024/01/29 00:36:37;;;;;;;;;44.00;40.00;;;;;7.96;75.67;101899.31;5139250;27;46292;-83
2024/01/29 00:39:06;;;;;;;;;38.00;35.50;;;;;8.07;75.18;101906.97;5122414;27;45342;-84
2024/01/29 00:41:33;;;;;;;;;46.25;40.00;;;;;8.00;75.34;101903.59;5141146;27;45336;-83
2024/01/29 00:43:58;;;;;;;;;43.50;39.25;;;;;7.93;75.21;101896.69;5141020;27;45301;-83
2024/01/29 00:46:23;;;;;;;;;47.00;39.50;;;;;8.03;75.42;101907.94;5141421;27;46029;-84
2024/01/29 00:48:48;;;;;;;;;34.25;32.75;;;;;7.97;75.03;101891.31;5140860;27;46906;-83
2024/01/29 00:51:14;;;;;;;;;43.50;37.25;;;;;7.95;75.19;101897.56;5140836;27;45369;-84
2024/01/29 00:53:40;;;;;;;;;37.75;32.50;;;;;7.95;75.27;101902.84;5141621;27;45320;-83
2024/01/29 00:56:05;;;;;;;;;51.25;40.25;;;;;7.96;75.37;101904.59;5142310;27;45324;-84
2024/01/29 00:58:31;;;;;;;;;42.50;37.75;;;;;7.95;75.30;101905.50;5125001;27;45256;-83
2024/01/29 01:00:56;;;;;;;;;48.75;40.25;;;;;7.97;75.61;101916.94;5126787;27;45309;-84
2024/01/29 01:03:21;;;;;;;;;48.25;39.00;;;;;7.95;75.61;101902.84;5120155;27;45501;-84
2024/01/29 01:05:47;;;;;;;;;42.50;36.50;;;;;7.89;75.72;101900.34;5118942;27;65982;-84
2024/01/29 01:08:12;;;;;;;;;33.25;28.50;;;;;7.91;76.01;101906.47;5119018;27;63281;-85
2024/01/29 01:10:37;;;;;;;;;38.00;36.25;;;;;7.92;76.00;101902.91;5119572;27;45431;-83
2024/01/29 01:13:03;;;;;;;;;34.50;31.25;;;;;7.94;75.82;101901.09;5120773;27;45566;-84
2024/01/29 01:15:28;;;;;;;;;46.50;36.00;;;;;7.95;75.69;101894.91;5119505;27;46109;-82
2024/01/29 01:17:54;;;;;;;;;33.25;31.75;;;;;7.91;76.38;101887.94;5101459;27;45285;-84
2024/01/29 01:20:19;;;;;;;;;40.00;36.00;;;;;7.99;75.60;101896.56;5128406;27;45531;-84
2024/01/29 01:22:44;;;;;;;;;49.50;39.25;;;;;8.02;75.76;101908.84;5121173;27;45549;-84
2024/01/29 01:25:10;;;;;;;;;38.25;37.25;;;;;8.03;76.26;101898.22;5120948;27;47296;-84
2024/01/29 01:27:35;;;;;;;;;43.25;39.25;;;;;7.97;75.32;101886.00;5139627;27;45443;-84
2024/01/29 01:30:01;;;;;;;;;42.75;37.00;;;;;7.98;75.43;101886.88;5138443;27;45499;-84
2024/01/29 01:32:26;;;;;;;;;43.25;37.00;;;;;8.05;76.33;101904.34;5140809;27;45453;-83
2024/01/29 01:34:51;;;;;;;;;49.50;42.50;;;;;7.97;75.49;101888.66;5140348;27;46004;-84
2024/01/29 01:37:17;;;;;;;;;38.75;37.00;;;;;8.04;76.12;101907.91;5140499;27;45546;-85
2024/01/29 01:39:42;;;;;;;;;46.25;40.00;;;;;8.08;76.26;101920.19;5139343;27;45537;-84
2024/01/29 01:42:08;;;;;;;;;48.00;40.75;;;;;8.08;75.86;101916.69;5140910;27;45273;-83
2024/01/29 01:44:34;;;;;;;;;44.50;38.50;;;;;8.05;75.60;101909.66;5139500;27;45375;-84
2024/01/29 01:46:59;;;;;;;;;41.00;38.00;;;;;7.93;76.21;101886.09;5140418;27;45462;-85
2024/01/29 01:49:25;;;;;;;;;36.25;34.25;;;;;8.17;75.97;101924.38;5135000;27;45250;-85
2024/01/29 01:51:51;;;;;;;;;38.00;36.75;;;;;8.18;75.96;101927.00;5102105;27;45493;-85
2024/01/29 01:54:17;;;;;;;;;35.75;32.75;;;;;8.18;75.74;101916.38;5118760;27;45363;-83
2024/01/29 01:56:44;;;;;;;;;41.50;36.25;;;;;8.25;75.80;101918.00;5100134;27;45346;-84
2024/01/29 01:59:11;;;;;;;;;40.75;37.00;;;;;8.17;76.14;101901.41;5099405;27;45397;-84
2024/01/29 02:01:38;;;;;;;;;38.50;32.50;;;;;8.24;76.25;101916.25;5138459;27;45385;-84
2024/01/29 02:04:03;;;;;;;;;37.00;33.00;;;;;8.29;75.49;101924.06;5139963;27;46105;-83
2024/01/29 02:06:29;;;;;;;;;43.50;38.75;;;;;8.29;75.54;101919.63;5140519;27;45641;-84
2024/01/29 02:08:55;;;;;;;;;47.75;38.75;;;;;8.27;75.62;101924.13;5133899;27;45451;-84
2024/01/29 02:11:20;;;;;;;;;37.25;32.75;;;;;8.19;75.48;101907.53;5141665;27;45566;-86
2024/01/29 02:13:45;;;;;;;;;39.75;35.00;;;;;8.26;76.15;101922.38;5116971;27;46856;-84
2024/01/29 02:16:11;;;;;;;;;39.75;37.00;;;;;8.24;75.24;101920.69;5099801;27;45263;-83
2024/01/29 02:18:36;;;;;;;;;44.00;38.75;;;;;8.18;75.64;101911.09;5117477;27;45248;-83
2024/01/29 02:21:02;;;;;;;;;40.75;36.00;;;;;8.22;76.04;101917.19;5135538;27;45302;-83
2024/01/29 02:23:27;;;;;;;;;39.75;36.00;;;;;8.20;76.09;101919.91;5138863;27;45510;-84
2024/01/29 02:25:53;;;;;;;;;37.25;33.50;;;;;8.19;76.04;101928.72;5140421;27;45389;-84
2024/01/29 02:28:18;;;;;;;;;42.00;37.25;;;;;8.19;75.83;101936.69;5139417;27;45375;-84
2024/01/29 02:30:43;;;;;;;;;40.00;34.75;;;;;8.13;75.89;101928.88;5121048;27;45368;-84
2024/01/29 02:33:09;;;;;;;;;33.75;31.50;;;;;8.11;76.53;101935.13;5117615;27;56377;-84
2024/01/29 02:35:35;;;;;;;;;35.50;32.50;;;;;8.10;76.81;101928.97;5118106;27;45230;-83
2024/01/29 02:38:00;;;;;;;;;46.50;38.00;;;;;8.08;76.49;101925.50;5118077;27;45462;-84
2024/01/29 02:40:26;;;;;;;;;40.50;36.75;;;;;8.06;77.05;101931.72;5118135;27;45264;-85
2024/01/29 02:42:51;;;;;;;;;34.25;31.25;;;;;7.91;77.01;101912.63;5118033;27;45597;-83
2024/01/29 02:45:16;;;;;;;;;43.75;36.50;;;;;7.99;77.11;101931.00;5119178;27;45347;-84
2024/01/29 02:47:41;;;;;;;;;37.75;36.50;;;;;7.89;77.34;101903.00;5117282;27;51900;-83
2024/01/29 02:50:07;;;;;;;;;39.75;36.50;;;;;7.84;77.48;101900.47;5117054;27;45580;-84
2024/01/29 02:52:33;;;;;;;;;38.50;34.00;;;;;7.90;77.47;101907.38;5129352;27;46332;-83
2024/01/29 02:54:58;;;;;;;;;37.50;33.75;;;;;7.92;77.78;101914.38;5138673;27;45410;-83
2024/01/29 02:57:24;;;;;;;;;33.75;33.75;;;;;7.96;78.23;101925.78;5138482;27;54544;-84
2024/01/29 02:59:50;;;;;;;;;46.75;36.75;;;;;7.93;77.62;101923.19;5122534;27;45322;-85
2024/01/29 03:02:15;;;;;;;;;34.50;28.75;;;;;7.93;77.86;101932.00;5119499;27;46581;-83
2024/01/29 03:04:41;;;;;;;;;46.00;38.25;;;;;7.91;77.69;101925.00;5138194;27;45284;-84
2024/01/29 03:07:06;;;;;;;;;33.50;31.25;;;;;7.73;77.73;101896.31;5137873;27;53019;-83
2024/01/29 03:09:31;;;;;;;;;35.00;31.75;;;;;7.84;78.75;101920.78;5136955;27;45225;-84
2024/01/29 03:11:57;;;;;;;;;37.25;31.00;;;;;7.75;78.15;101900.66;5136614;27;45384;-84
2024/01/29 03:14:22;;;;;;;;;33.75;31.75;;;;;7.78;78.31;101915.59;5132003;27;45274;-84
2024/01/29 03:16:47;;;;;;;;;37.00;33.50;;;;;7.83;78.36;101924.34;5137610;27;45396;-83
2024/01/29 03:19:13;;;;;;;;;37.25;30.50;;;;;7.82;78.49;101922.59;5139245;27;45260;-82
2024/01/29 03:21:38;;;;;;;;;37.00;32.50;;;;;7.83;78.55;101934.94;5140822;27;45371;-84
2024/01/29 03:24:04;;;;;;;;;37.75;31.50;;;;;7.81;78.71;101921.72;5138500;27;45236;-83
2024/01/29 03:26:29;;;;;;;;;39.00;32.50;;;;;7.87;78.53;101931.28;5137425;27;45313;-83
2024/01/29 03:28:54;;;;;;;;;32.25;29.75;;;;;7.88;78.88;101927.75;5127080;27;45277;-84
2024/01/29 03:31:20;;;;;;;;;30.75;28.00;;;;;7.87;79.03;101920.69;5125833;27;45863;-84
2024/01/29 03:33:45;;;;;;;;;28.00;27.25;;;;;7.79;79.46;101902.31;5137746;27;45392;-83
2024/01/29 03:36:11;;;;;;;;;38.75;33.75;;;;;7.91;78.80;101927.66;5123012;27;45406;-83
2024/01/29 03:38:36;;;;;;;;;28.50;26.75;;;;;7.89;79.04;101924.19;5141067;27;45457;-83
2024/01/29 03:41:01;;;;;;;;;31.00;28.50;;;;;7.85;78.85;101922.53;5129418;27;45363;-85
2024/01/29 03:43:27;;;;;;;;;26.25;25.50;;;;;7.86;79.36;101918.97;5135463;27;45319;-85
2024/01/29 03:45:55;;;;;;;;;26.25;23.75;;;;;7.80;79.27;101913.78;5141294;27;45398;-85
2024/01/29 03:48:21;;;;;;;;;26.25;25.75;;;;;7.80;79.31;101916.44;5140425;27;45233;-84
2024/01/29 03:50:46;;;;;;;;;28.25;25.75;;;;;7.71;79.64;101900.78;5140838;27;45895;-84
2024/01/29 03:53:12;;;;;;;;;24.25;24.25;;;;;7.79;80.08;101909.41;5130138;27;45380;-84
2024/01/29 03:55:37;;;;;;;;;26.00;22.25;;;;;7.77;79.94;101908.56;5120843;27;45234;-84
2024/01/29 03:58:03;;;;;;;;;21.00;21.00;;;;;7.74;80.07;101917.47;5120329;27;45198;-85
2024/01/29 04:00:30;;;;;;;;;30.25;26.00;;;;;7.71;80.50;101921.97;5120016;27;45526;-85
2024/01/29 04:02:56;;;;;;;;;22.00;22.00;;;;;7.71;80.77;101919.31;5119782;27;45382;-85
2024/01/29 04:05:21;;;;;;;;;26.00;25.25;;;;;7.65;80.97;101910.59;5115029;27;45463;-84
2024/01/29 04:07:47;;;;;;;;;28.25;21.25;;;;;7.69;80.83;101907.00;5141750;27;45260;-83
2024/01/29 04:10:12;;;;;;;;;28.75;24.25;;;;;7.79;80.62;101928.81;5141260;27;45398;-83
2024/01/29 04:12:37;;;;;;;;;20.75;20.75;;;;;7.79;80.76;101920.88;5134884;27;45357;-84
2024/01/29 04:15:03;;;;;;;;;29.00;23.50;;;;;7.54;80.96;101880.84;5120712;27;45479;-83
2024/01/29 04:17:29;;;;;;;;;22.00;22.00;;;;;7.77;80.66;101919.16;5120755;27;45356;-83
2024/01/29 04:19:54;;;;;;;;;30.75;25.00;;;;;7.71;80.98;101908.72;5135837;27;45407;-83
2024/01/29 04:22:20;;;;;;;;;25.50;22.75;;;;;7.80;80.57;101924.38;5139914;27;45417;-84
2024/01/29 04:24:45;;;;;;;;;26.50;22.75;;;;;7.81;80.75;101920.81;5119977;27;45228;-84
2024/01/29 04:27:11;;;;;;;;;27.00;24.75;;;;;7.74;80.37;101912.16;5134469;27;45525;-83
2024/01/29 04:29:36;;;;;;;;;30.50;22.00;;;;;7.66;80.65;101914.97;5124411;27;46048;-83
2024/01/29 04:32:02;;;;;;;;;26.00;23.75;;;;;7.65;80.43;101904.44;5120241;27;45248;-84
2024/01/29 04:34:27;;;;;;;;;23.50;20.25;;;;;7.76;80.05;101933.31;5121553;27;45242;-85
2024/01/29 04:36:52;;;;;;;;;23.75;22.25;;;;;7.83;80.42;101941.09;5132627;27;45352;-83
2024/01/29 04:39:18;;;;;;;;;22.25;20.50;;;;;7.90;79.77;101947.09;5126328;27;45219;-85
2024/01/29 04:41:43;;;;;;;;;23.00;22.25;;;;;7.81;80.13;101926.13;5119472;27;45373;-84
2024/01/29 04:44:08;;;;;;;;;26.00;23.50;;;;;7.84;79.91;101942.84;5119512;27;45238;-84
2024/01/29 04:46:34;;;;;;;;;26.50;22.25;;;;;7.89;80.38;101961.25;5119627;27;45216;-85
2024/01/29 04:48:59;;;;;;;;;21.00;18.25;;;;;7.72;80.10;101923.72;5116324;27;46765;-85
2024/01/29 04:51:26;;;;;;;;;30.25;22.75;;;;;7.82;79.87;101964.97;5146190;27;45183;-82
2024/01/29 04:53:51;;;;;;;;;25.75;21.50;;;;;7.80;80.56;101961.47;5144363;27;45277;-83
2024/01/29 04:56:17;;;;;;;;;22.00;20.50;;;;;7.73;80.60;101952.81;5142519;27;45266;-84
2024/01/29 04:58:42;;;;;;;;;19.25;18.50;;;;;7.75;80.72;101964.22;5130373;27;46233;-82
2024/01/29 05:01:08;;;;;;;;;21.75;19.50;;;;;7.71;80.72;101951.09;5121002;27;45368;-84
2024/01/29 05:03:33;;;;;;;;;22.00;21.00;;;;;7.71;80.73;101962.56;5120667;27;45232;-85
2024/01/29 05:05:58;;;;;;;;;20.25;19.50;;;;;7.71;80.71;101957.25;5113485;27;46785;-85
2024/01/29 05:08:24;;;;;;;;;21.75;20.75;;;;;7.71;81.12;101961.69;5127575;27;45382;-84
2024/01/29 05:10:49;;;;;;;;;21.25;21.25;;;;;7.67;80.77;101953.78;5125931;27;45263;-84
2024/01/29 05:13:15;;;;;;;;;21.50;21.50;;;;;7.68;81.00;101968.81;5119664;27;45400;-83
2024/01/29 05:15:41;;;;;;;;;21.00;21.00;;;;;7.69;80.91;101969.69;5120189;27;45614;-83
2024/01/29 05:18:06;;;;;;;;;27.00;22.25;;;;;7.61;81.36;101951.28;5118537;27;46186;-83
2024/01/29 05:20:31;;;;;;;;;24.25;22.25;;;;;7.68;81.07;101957.31;5100891;27;45408;-84
2024/01/29 05:22:57;;;;;;;;;26.25;24.75;;;;;7.50;81.15;101931.25;5118799;27;51279;-85
2024/01/29 05:25:22;;;;;;;;;21.00;21.00;;;;;7.66;81.19;101957.34;5120213;27;45533;-85
2024/01/29 05:27:48;;;;;;;;;18.25;18.25;;;;;7.68;80.81;101963.50;5122562;27;45310;-83
2024/01/29 05:30:13;;;;;;;;;23.50;20.25;;;;;7.68;81.33;101966.16;5120868;27;49910;-84
2024/01/29 05:32:39;;;;;;;;;23.00;21.00;;;;;7.61;81.19;101951.28;5139756;27;45324;-86
2024/01/29 05:35:05;;;;;;;;;25.75;23.00;;;;;7.56;81.79;101942.59;5143877;27;47792;-82
2024/01/29 05:37:32;;;;;;;;;21.00;19.00;;;;;7.72;81.93;101968.72;5138205;27;46455;-84
2024/01/29 05:39:57;;;;;;;;;22.25;21.25;;;;;7.60;81.70;101944.25;5139290;27;45441;-84
2024/01/29 05:42:22;;;;;;;;;22.25;20.00;;;;;7.80;81.37;101964.97;5139254;27;45245;-84
2024/01/29 05:44:48;;;;;;;;;17.75;17.75;;;;;7.83;80.92;101967.59;5140197;27;45564;-84
2024/01/29 05:47:13;;;;;;;;;23.75;21.75;;;;;7.87;81.53;101973.69;5140024;27;45500;-85
2024/01/29 05:49:39;;;;;;;;;22.50;19.00;;;;;7.88;80.80;101978.06;5137637;27;45379;-84
2024/01/29 05:52:05;;;;;;;;;26.25;21.25;;;;;7.87;81.20;101978.97;5140497;27;45336;-84
2024/01/29 05:54:30;;;;;;;;;27.25;21.50;;;;;7.79;80.74;101957.06;5121580;27;45465;-84
2024/01/29 05:56:56;;;;;;;;;25.00;21.50;;;;;7.96;80.30;101994.66;5130707;27;45368;-84
2024/01/29 05:59:22;;;;;;;;;20.50;18.25;;;;;7.65;79.94;101931.78;5129678;27;45338;-83
2024/01/29 06:01:47;;;;;;;;;25.50;24.25;;;;;8.00;80.14;101985.72;5122638;27;45754;-84
2024/01/29 06:04:12;;;;;;;;;23.25;21.50;;;;;8.02;80.06;101994.50;5119615;27;45219;-84
2024/01/29 06:06:38;;;;;;;;;19.00;19.00;;;;;7.98;80.02;101988.41;5119252;27;45236;-83
2024/01/29 06:09:05;;;;;;;;;25.50;22.75;;;;;8.04;79.59;101991.81;5126391;27;45417;-87
2024/01/29 06:11:31;;;;;;;;;24.00;19.00;;;;;8.03;79.19;101998.03;5127092;27;45476;-85
2024/01/29 06:13:56;;;;;;;;;31.50;22.25;;;;;8.02;80.20;102005.09;5123344;27;45412;-83
2024/01/29 06:16:22;;;;;;;;;26.25;23.25;;;;;7.93;79.55;101995.59;5119002;27;45362;-85
2024/01/29 06:18:48;;;;;;;;;26.25;22.25;;;;;7.95;79.53;101995.56;5103708;27;45470;-83
2024/01/29 06:21:13;;;;;;;;;22.75;21.25;;;;;7.90;79.60;101994.78;5122766;27;45562;-84
2024/01/29 06:23:39;;;;;;;;;23.00;20.75;;;;;7.92;79.63;102003.56;5118913;27;45517;-83
2024/01/29 06:26:04;;;;;;;;;27.75;24.75;;;;;7.81;80.04;102000.28;5120434;27;48104;-83
2024/01/29 06:28:30;;;;;;;;;23.00;21.25;;;;;7.77;80.13;102003.91;5125657;27;45490;-83
2024/01/29 06:30:55;;;;;;;;;29.25;23.75;;;;;7.74;80.48;102006.63;5106108;27;45463;-80
2024/01/29 06:33:20;;;;;;;;;22.00;21.25;;;;;7.74;80.73;102019.88;5107399;27;45653;-84
2024/01/29 06:35:46;;;;;;;;;24.00;22.00;;;;;7.74;80.34;102018.09;5123890;27;46296;-83
2024/01/29 06:38:11;;;;;;;;;22.50;19.25;;;;;7.67;80.85;101998.81;5139081;27;45239;-83
2024/01/29 06:40:36;;;;;;;;;20.50;18.75;;;;;7.66;80.66;102012.94;5129667;27;45325;-81
2024/01/29 06:43:02;;;;;;;;;18.75;17.75;;;;;7.65;81.69;102027.09;5122036;27;45576;-83
2024/01/29 06:45:28;;;;;;;;;21.75;18.50;;;;;7.61;81.29;102014.84;5139807;27;45820;-82
2024/01/29 06:47:54;;;;;;;;;29.25;23.50;;;;;7.48;81.46;101997.47;5134310;27;45161;-81
2024/01/29 06:50:19;;;;;;;;;16.25;16.25;;;;;7.57;82.07;102018.47;5121627;27;45309;-81
2024/01/29 06:52:45;;;;;;;;;28.75;22.00;;;;;7.52;81.84;102004.44;5120434;27;45197;-85
2024/01/29 06:55:11;;;;;;;;;25.00;21.25;;;;;7.50;82.10;102014.19;5119994;27;45979;-86
2024/01/29 06:57:36;;;;;;;;;23.00;21.00;;;;;7.49;82.25;102014.22;5133199;27;45530;-88
2024/01/29 07:00:03;;;;;;;;;26.00;24.50;;;;;7.55;81.78;102024.66;5144128;27;45451;-86
2024/01/29 07:02:29;;;;;;;;;25.50;24.00;;;;;7.48;81.95;102023.94;5127887;27;44863;-89
2024/01/29 07:04:55;;;;;;;;;24.25;24.25;;;;;7.16;81.48;101968.13;5130361;27;45464;-89
2024/01/29 07:07:20;;;;;;;;;22.75;21.25;;;;;7.40;81.84;102015.28;5132846;27;45483;-86
2024/01/29 07:09:45;;;;;;;;;25.25;22.00;;;;;7.21;81.74;101988.31;5131191;27;45583;-87
2024/01/29 07:12:14;;;;;;;;;25.25;23.25;;;;;7.40;82.25;102012.63;5132344;27;44782;-89
2024/01/29 07:14:40;;;;;;;;;27.00;20.00;;;;;7.20;82.17;101978.63;5124618;27;46924;-87
2024/01/29 07:17:10;;;;;;;;;29.00;25.25;;;;;7.27;81.79;102003.19;5121266;27;45538;-89
2024/01/29 07:19:45;;;;;;;;;29.00;25.00;;;;;7.43;82.04;102032.88;5094999;27;44827;-87
2024/01/29 07:22:14;;;;;;;;;27.25;21.75;;;;;7.38;82.10;102028.53;5071109;28;45459;-87
2024/01/29 07:24:40;;;;;;;;;24.75;18.75;;;;;7.37;82.23;102042.69;5095457;27;46003;-86
2024/01/29 07:27:05;;;;;;;;;30.75;25.00;;;;;7.33;82.24;102033.06;5103040;27;45363;-87
2024/01/29 07:29:31;;;;;;;;;25.25;22.50;;;;;7.30;82.36;102026.97;5088095;27;45270;-90
2024/01/29 07:31:58;;;;;;;;;21.50;20.75;;;;;7.07;82.31;102001.81;5109953;27;45227;-91
2024/01/29 07:34:23;;;;;;;;;20.75;20.75;;;;;7.27;82.49;102033.16;5095036;28;48089;-92
2024/01/29 07:36:49;;;;;;;;;16.50;15.75;;;;;7.29;82.92;102038.44;5080198;27;45376;-85
2024/01/29 07:39:15;;;;;;;;;27.75;26.75;;;;;7.31;82.77;102047.22;5064384;27;45901;-88
2024/01/29 07:41:41;;;;;;;;;26.50;24.00;;;;;7.15;82.88;102028.09;5083028;27;45607;-86
2024/01/29 07:44:06;;;;;;;;;29.75;28.25;;;;;7.31;82.86;102044.59;5061553;28;46603;-84
2024/01/29 07:46:32;;;;;;;;;30.75;26.50;;;;;7.33;82.97;102050.72;5080594;27;45479;-85
2024/01/29 07:49:01;;;;;;;;;29.25;23.75;;;;;7.06;83.22;102007.13;5089245;27;45373;-88
2024/01/29 07:51:27;;;;;;;;;22.50;22.50;;;;;7.34;82.79;102044.53;5122631;27;45374;-86
2024/01/29 07:53:53;;;;;;;;;28.50;25.50;;;;;7.41;83.03;102059.34;5125467;27;45748;-87
2024/01/29 07:56:18;;;;;;;;;29.50;26.75;;;;;7.28;82.80;102037.56;5124608;27;45421;-89
2024/01/29 07:58:44;;;;;;;;;24.50;22.75;;;;;7.39;82.50;102056.75;5119055;27;45428;-88
2024/01/29 08:01:09;;;;;;;;;28.75;25.25;;;;;7.28;82.44;102021.69;5112051;27;45555;-94
2024/01/29 08:03:35;;;;;;;;;26.50;19.50;;;;;7.37;81.99;102045.31;5130967;27;46948;-88
2024/01/29 08:06:01;;;;;;;;;22.50;21.25;;;;;7.24;82.67;102013.84;5147105;27;45384;-88
2024/01/29 08:08:26;;;;;;;;;22.50;18.75;;;;;7.38;82.38;102038.25;5140067;27;45449;-90
2024/01/29 08:10:52;;;;;;;;;30.75;26.00;;;;;7.10;82.30;101991.16;5120862;27;45278;-89
2024/01/29 08:13:17;;;;;;;;;27.50;21.75;;;;;7.27;82.20;102019.06;5137778;27;45421;-89
2024/01/29 08:15:43;;;;;;;;;27.75;21.00;;;;;7.43;82.53;102041.69;5137923;27;45355;-88
2024/01/29 08:18:08;;;;;;;;;25.75;19.50;;;;;7.48;82.29;102050.41;5129040;27;45457;-89
2024/01/29 08:20:34;;;;;;;;;24.25;21.50;;;;;7.68;81.73;102072.06;5148141;27;45470;-88
2024/01/29 08:22:59;;;;;;;;;20.00;20.00;;;;;7.77;82.11;102072.78;5142863;27;46102;-89
2024/01/29 08:25:26;;;;;;;;;23.25;17.50;;;;;7.83;81.18;102062.06;5102034;27;45874;-89
2024/01/29 08:27:51;;;;;;;;;27.75;25.25;;;;;7.87;81.35;102045.19;5139314;27;45551;-90
2024/01/29 08:30:17;;;;;;;;;25.75;21.00;;;;;7.93;80.66;102040.63;5112505;27;45607;-90
2024/01/29 08:32:43;;;;;;;;;19.25;18.50;;;;;7.90;80.42;102010.69;5140031;27;45487;-89
2024/01/29 08:35:10;;;;;;;;;21.50;19.50;;;;;8.28;80.16;102070.75;5120603;27;45518;-88
2024/01/29 08:37:35;;;;;;;;;23.25;22.00;;;;;8.19;80.19;102049.75;5134539;27;45795;-89
2024/01/29 08:40:01;;;;;;;;;16.00;12.00;;;;;8.43;80.13;102080.16;5138871;27;45377;-85
2024/01/29 08:42:28;;;;;;;;;19.25;17.25;;;;;8.38;79.65;102052.91;5146258;27;45589;-86
2024/01/29 08:44:56;;;;;;;;;24.50;22.00;;;;;8.58;79.21;102074.50;5114783;27;45376;-88
2024/01/29 08:47:24;;;;;;;;;21.50;20.25;;;;;8.55;78.99;102058.66;5134442;27;45600;-86
2024/01/29 08:49:53;;;;;;;;;29.75;24.50;;;;;8.73;79.11;102079.44;5138045;27;45455;-85
2024/01/29 08:52:18;;;;;;;;;24.00;19.00;;;;;8.79;78.51;102073.97;5126229;27;47815;-88
2024/01/29 08:54:44;;;;;;;;;21.00;21.00;;;;;8.89;78.18;102073.75;5134088;27;45263;-87
2024/01/29 08:57:10;;;;;;;;;24.00;18.25;;;;;8.87;78.04;102065.84;5131268;27;45318;-85
2024/01/29 08:59:35;;;;;;;;;20.75;14.75;;;;;9.01;78.08;102073.44;5110425;27;45757;-90
2024/01/29 09:02:00;;;;;;;;;14.75;12.50;;;;;8.99;77.14;102048.72;5134889;27;46115;-90
2024/01/29 09:04:26;;;;;;;;;21.00;20.50;;;;;9.06;77.01;102037.03;5130777;27;45405;-91
2024/01/29 09:06:53;;;;;;;;;21.75;15.00;;;;;9.23;77.18;102053.34;5138157;27;44907;-88
2024/01/29 09:09:18;;;;;;;;;21.50;13.25;;;;;9.22;76.21;102043.66;5117934;27;45259;-92
2024/01/29 09:11:44;;;;;;;;;26.25;21.50;;;;;9.13;76.63;102017.38;5141798;27;45365;-89
2024/01/29 09:14:09;;;;;;;;;18.50;17.25;;;;;9.56;76.11;102087.88;5138410;27;45784;-88
2024/01/29 09:16:34;;;;;;;;;23.25;18.00;;;;;9.45;75.57;102054.53;5111812;27;45391;-91
2024/01/29 09:19:00;;;;;;;;;21.75;21.25;;;;;9.39;75.09;102038.78;5117298;27;45501;-90
2024/01/29 09:21:25;;;;;;;;;23.00;21.25;;;;;9.58;75.27;102075.41;5121590;27;47313;-90
2024/01/29 09:23:51;;;;;;;;;20.25;17.75;;;;;9.18;74.98;102007.50;5124009;27;44813;-89
2024/01/29 09:26:17;;;;;;;;;19.75;18.75;;;;;9.37;74.98;102048.53;5111230;27;45382;-89
2024/01/29 09:28:43;;;;;;;;;22.00;22.00;;;;;9.49;75.53;102059.72;5134503;27;45559;-87
2024/01/29 09:31:09;;;;;;;;;14.25;13.75;;;;;9.60;75.06;102078.91;5127406;27;45381;-87
2024/01/29 09:33:34;;;;;;;;;25.75;18.00;;;;;9.57;74.87;102063.94;5121242;27;45444;-90
2024/01/29 09:36:00;;;;;;;;;21.00;16.25;;;;;9.62;75.20;102067.31;5126495;27;45315;-90
2024/01/29 09:38:26;;;;;;;;;21.25;19.25;;;;;9.60;74.70;102069.16;5133031;27;45494;-92
2024/01/29 09:40:54;;;;;;;;;26.25;21.75;;;;;9.51;74.98;102055.28;5114425;27;47438;-93
2024/01/29 09:43:21;;;;;;;;;25.25;19.00;;;;;9.67;75.29;102080.47;5129847;27;45490;-89
2024/01/29 09:45:49;;;;;;;;;14.00;13.50;;;;;9.71;75.32;102084.78;5120989;27;45567;-86
2024/01/29 09:48:15;;;;;;;;;27.00;19.50;;;;;9.71;74.99;102079.47;5111210;27;45734;-91
2024/01/29 09:50:43;;;;;;;;;25.25;19.25;;;;;9.72;75.04;102086.53;5134702;27;45515;-91
2024/01/29 09:53:11;;;;;;;;;21.00;20.25;;;;;9.61;75.07;102070.88;5136628;27;45479;-91
2024/01/29 09:55:36;;;;;;;;;22.00;20.25;;;;;9.73;74.90;102080.28;5114265;27;45333;-89
2024/01/29 09:58:01;;;;;;;;;19.25;19.25;;;;;9.87;74.81;102083.41;5123054;27;46363;-89
2024/01/29 10:00:27;;;;;;;;;20.25;20.25;;;;;9.87;74.95;102086.06;5124708;27;45398;-92
2024/01/29 10:02:54;;;;;;;;;12.50;10.25;;;;;9.81;74.69;102057.03;5127109;27;45305;-90
2024/01/29 10:05:20;;;;;;;;;21.50;20.50;;;;;9.77;74.48;102046.56;5120397;27;45442;-92
2024/01/29 10:07:45;;;;;;;;;19.50;17.75;;;;;9.89;74.32;102070.06;5132833;27;45757;-90
2024/01/29 10:10:11;;;;;;;;;24.00;20.75;;;;;9.99;74.82;102091.03;5129255;27;47707;-88
2024/01/29 10:12:37;;;;;;;;;21.25;20.00;;;;;9.82;75.11;102061.44;5133147;27;45757;-91
2024/01/29 10:15:03;;;;;;;;;22.75;22.50;;;;;9.79;74.93;102048.25;5127821;27;45387;-93
2024/01/29 10:17:29;;;;;;;;;20.25;20.25;;;;;9.88;74.26;102053.25;5143859;27;45422;-91
2024/01/29 10:19:54;;;;;;;;;29.75;22.50;;;;;10.18;74.47;102088.69;5123147;27;46848;-90
2024/01/29 10:22:25;;;;;;;;;23.75;18.00;;;;;10.11;73.92;102060.56;5140672;27;45396;-90
2024/01/29 10:25:02;;;;;;;;;21.50;20.50;;;;;10.25;73.68;102066.34;5124175;27;45326;-91
2024/01/29 10:27:28;;;;;;;;;22.75;21.50;;;;;10.49;73.94;102083.31;5142981;27;45581;-87
2024/01/29 10:29:53;;;;;;;;;17.50;17.50;;;;;10.48;72.78;102057.63;5125827;27;45601;-90
2024/01/29 10:32:22;;;;;;;;;21.75;18.25;;;;;10.77;72.70;102077.09;5104645;27;45337;-88
2024/01/29 10:34:48;;;;;;;;;18.00;17.00;;;;;10.74;72.39;102047.94;5115247;27;45488;-88
2024/01/29 10:37:15;;;;;;;;;22.25;20.25;;;;;11.02;72.00;102072.69;5129310;27;45512;-87
2024/01/29 10:39:41;;;;;;;;;16.50;16.50;;;;;11.01;71.56;102047.00;5139543;27;45297;-89
2024/01/29 10:42:09;;;;;;;;;22.75;17.25;;;;;11.02;71.10;102039.88;5125190;27;45519;-91
2024/01/29 10:44:38;;;;;;;;;21.75;16.75;;;;;11.22;70.94;102051.56;5138564;27;45217;-87
2024/01/29 10:47:17;;;;;;;;;20.50;17.00;;;;;11.19;70.47;102030.34;5108112;27;44962;-90
2024/01/29 10:49:45;;;;;;;;;11.75;11.75;;;;;11.39;69.91;102044.75;5132332;27;45479;-89
2024/01/29 10:52:14;;;;;;;;;17.25;15.50;;;;;11.36;69.41;102018.25;5126367;27;45550;-89
2024/01/29 10:54:43;;;;;;;;;20.50;17.00;;;;;11.54;68.98;102012.22;5130213;27;45372;-90
2024/01/29 10:57:10;;;;;;;;;20.50;19.25;;;;;11.84;68.35;102049.34;5127126;27;45533;-90
2024/01/29 10:59:42;;;;;;;;;18.50;17.00;;;;;11.72;68.34;102014.22;5148724;27;46150;-90
2024/01/29 11:02:15;;;;;;;;;24.00;20.00;;;;;11.87;67.53;102026.13;5151525;27;45426;-89
2024/01/29 11:04:46;;;;;;;;;24.25;18.25;;;;;11.87;67.22;101993.25;5125991;27;45407;-91
2024/01/29 11:07:20;;;;;;;;;26.25;20.25;;;;;12.07;67.20;102009.31;5115032;27;45825;-88
2024/01/29 11:10:23;;;;;;;;;20.50;17.00;;;;;12.39;66.55;102056.94;5111382;27;46649;-89